Time;durP1;ratioP1;P1;durP2;ratioP2;P2;SDS_P1;SDS_P2;PMS_P1;PMS_P2;Temp;Humidity;BMP_temperature;BMP_pressure;BME280_temperature;BME280_humidity;BME280_pressure;Samples;Min_cycle;Max_cycle;Signal;HPM_P1;HPM_P2
2022/06/23 00:00:09;;;;;;;;;;;;;;;12.29;65.45;99180.16;1772676;81;20207;-55
2022/06/23 00:03:13;;;;;;;;;;;;;;;12.26;65.39;99177.30;1773081;81;20228;-55
2022/06/23 00:06:27;;;;;;;;;;;;;;;12.24;65.48;99168.44;1773156;81;20223;-55
2022/06/23 00:09:43;;;;;;;;;;;;;;;12.27;65.77;99163.06;1772889;81;20582;-55
2022/06/23 00:12:49;;;;;;;;;;;;;;;12.30;65.96;99166.23;1772109;81;20195;-55
2022/06/23 00:15:53;;;;;;;;;;;;;;;12.31;66.03;99163.78;1772905;81;20532;-55
2022/06/23 00:18:57;;;;;;;;;;;;;;;12.32;66.04;99165.45;1773234;81;20235;-55
2022/06/23 00:22:01;;;;;;;;;;;;;;;12.30;66.08;99163.48;1772889;81;20224;-55
2022/06/23 00:25:05;;;;;;;;;;;;;;;12.30;66.09;99157.99;1773204;81;20203;-55
2022/06/23 00:28:10;;;;;;;;;;;;;;;12.31;66.14;99159.67;1773071;80;20524;-55
2022/06/23 00:31:15;;;;;;;;;;;;;;;12.32;66.20;99152.29;1772795;81;20559;-55
2022/06/23 00:34:34;;;;;;;;;;;;;;;12.30;66.21;99159.37;1773182;81;20208;-55
2022/06/23 00:37:38;;;;;;;;;;;;;;;12.28;66.23;99167.48;1773240;81;20207;-55
2022/06/23 00:40:42;;;;;;;;;;;;;;;12.23;66.06;99175.52;1772391;81;20588;-55
2022/06/23 00:43:49;;;;;;;;;;;;;;;12.19;66.09;99183.36;1776328;79;20569;-54
2022/06/23 00:46:55;;;;;;;;;;;;;;;12.13;65.95;99182.82;1779974;80;20193;-55
2022/06/23 00:50:09;;;;;;;;;;;;;;;12.07;65.81;99185.61;1782705;79;20170;-55
2022/06/23 00:53:22;;;;;;;;;;;;;;;12.00;65.75;99184.25;1780997;80;20244;-55
2022/06/23 00:56:38;;;;;;;;;;;;;;;11.97;65.84;99177.83;1781433;79;20241;-55
2022/06/23 00:59:45;;;;;;;;;;;;;;;11.98;66.15;99168.53;1768917;81;20185;-55
2022/06/23 01:03:01;;;;;;;;;;;;;;;12.01;66.33;99177.69;1782718;79;20277;-55
2022/06/23 01:06:18;;;;;;;;;;;;;;;11.98;66.22;99181.72;1783520;79;20194;-55
2022/06/23 01:09:42;;;;;;;;;;;;;;;11.95;66.12;99190.38;1781698;79;20190;-55
2022/06/23 01:12:49;;;;;;;;;;;;;;;11.94;66.16;99190.05;1779139;81;20210;-55
2022/06/23 01:15:58;;;;;;;;;;;;;;;11.95;66.29;99178.55;1780986;79;20194;-55
2022/06/23 01:19:39;;;;;;;;;;;;;;;11.97;66.52;99184.67;1788894;79;20546;-55
2022/06/23 01:23:00;;;;;;;;;;;;;;;12.03;66.67;99192.05;1780067;79;20197;-55
2022/06/23 01:26:23;;;;;;;;;;;;;;;12.09;66.76;99192.55;1783483;79;20209;-55
2022/06/23 01:29:48;;;;;;;;;;;;;;;12.16;66.85;99197.51;1780818;79;20225;-55
2022/06/23 01:33:17;;;;;;;;;;;;;;;12.22;66.91;99203.50;1779944;79;20194;-55
2022/06/23 01:36:48;;;;;;;;;;;;;;;12.30;66.94;99213.39;1780205;80;20245;-56
2022/06/23 01:39:58;;;;;;;;;;;;;;;12.37;66.98;99208.74;1780310;79;20225;-55
2022/06/23 01:43:09;;;;;;;;;;;;;;;12.45;66.96;99220.83;1792364;79;20182;-55
2022/06/23 01:46:19;;;;;;;;;;;;;;;12.47;66.77;99209.11;1778037;79;20172;-55
2022/06/23 01:49:29;;;;;;;;;;;;;;;12.53;66.86;99199.48;1773252;81;20534;-55
2022/06/23 01:52:33;;;;;;;;;;;;;;;12.59;66.98;99193.12;1772735;81;20203;-55
2022/06/23 01:55:46;;;;;;;;;;;;;;;12.67;67.13;99196.98;1773023;81;20203;-55
2022/06/23 01:58:53;;;;;;;;;;;;;;;12.74;67.19;99200.56;1773298;81;20208;-55
2022/06/23 02:02:04;;;;;;;;;;;;;;;12.83;67.21;99206.63;1773269;81;20188;-55
2022/06/23 02:05:28;;;;;;;;;;;;;;;12.89;67.20;99205.22;1772934;81;20559;-55
2022/06/23 02:08:38;;;;;;;;;;;;;;;12.94;67.25;99204.03;1772577;81;20180;-55
2022/06/23 02:11:57;;;;;;;;;;;;;;;13.00;67.27;99200.44;1771982;81;20213;-55
2022/06/23 02:15:07;;;;;;;;;;;;;;;13.05;67.34;99218.48;1773263;80;20184;-60
2022/06/23 02:18:21;;;;;;;;;;;;;;;13.09;67.35;99203.26;1773060;81;20199;-55
2022/06/23 02:21:41;;;;;;;;;;;;;;;13.15;67.39;99207.02;1773052;81;20528;-55
2022/06/23 02:24:55;;;;;;;;;;;;;;;13.19;67.33;99221.46;1773089;81;20184;-55
2022/06/23 02:28:05;;;;;;;;;;;;;;;13.20;67.15;99219.05;1773060;81;20223;-55
2022/06/23 02:31:28;;;;;;;;;;;;;;;13.22;67.12;99222.39;1769245;81;20536;-55
2022/06/23 02:34:44;;;;;;;;;;;;;;;13.27;67.24;99237.69;1773252;81;20488;-55
2022/06/23 02:38:04;;;;;;;;;;;;;;;13.30;67.14;99224.88;1743092;80;20208;-55
2022/06/23 02:41:13;;;;;;;;;;;;;;;13.36;67.18;99226.77;1773136;81;20555;-55
2022/06/23 02:44:28;;;;;;;;;;;;;;;13.42;67.19;99220.38;1772545;81;20536;-55
2022/06/23 02:47:55;;;;;;;;;;;;;;;13.46;67.19;99221.59;1772106;79;20250;-55
2022/06/23 02:51:06;;;;;;;;;;;;;;;13.51;67.25;99227.80;1771424;80;20201;-55
2022/06/23 02:54:20;;;;;;;;;;;;;;;13.58;67.30;99231.36;1725360;83;20563;-55
2022/06/23 02:57:50;;;;;;;;;;;;;;;13.65;67.21;99225.80;1725819;82;20562;-56
2022/06/23 03:01:00;;;;;;;;;;;;;;;13.71;67.20;99219.41;1726254;82;20246;-55
2022/06/23 03:04:13;;;;;;;;;;;;;;;13.75;67.30;99218.73;1725883;82;20191;-55
2022/06/23 03:07:23;;;;;;;;;;;;;;;13.84;67.40;99219.30;1724647;83;20199;-55
2022/06/23 03:10:40;;;;;;;;;;;;;;;13.91;67.29;99228.31;1725772;83;20254;-55
2022/06/23 03:14:00;;;;;;;;;;;;;;;13.97;67.23;99228.81;1726811;82;20535;-55
2022/06/23 03:17:14;;;;;;;;;;;;;;;14.02;67.25;99234.45;1726324;82;20229;-55
2022/06/23 03:20:24;;;;;;;;;;;;;;;14.07;67.30;99240.98;1726516;81;20524;-55
2022/06/23 03:23:40;;;;;;;;;;;;;;;14.11;67.23;99249.64;1726134;82;20207;-55
2022/06/23 03:26:51;;;;;;;;;;;;;;;14.12;67.20;99259.56;1710207;83;20195;-55
2022/06/23 03:30:08;;;;;;;;;;;;;;;14.14;67.20;99262.95;1725613;82;20579;-56
2022/06/23 03:33:19;;;;;;;;;;;;;;;14.12;67.13;99267.83;1747431;80;20209;-55
2022/06/23 03:36:38;;;;;;;;;;;;;;;14.16;67.16;99262.19;1753482;82;20209;-55
2022/06/23 03:43:26;;;;;;;;;;;;;;;14.24;67.30;99263.28;1755511;81;20200;-56
2022/06/23 03:46:34;;;;;;;;;;;;;;;14.30;67.35;99261.84;1737216;81;20226;-55
2022/06/23 03:49:43;;;;;;;;;;;;;;;14.36;67.43;99276.63;1746841;82;20534;-56
2022/06/23 03:52:53;;;;;;;;;;;;;;;14.38;67.36;99273.94;1746819;82;20198;-55
2022/06/23 03:55:59;;;;;;;;;;;;;;;14.43;67.40;99274.11;1747914;82;20213;-56
2022/06/23 03:59:10;;;;;;;;;;;;;;;14.52;67.39;99281.55;1728047;82;20197;-55
2022/06/23 04:02:23;;;;;;;;;;;;;;;14.62;67.47;99298.38;1746073;82;20205;-54
2022/06/23 04:05:34;;;;;;;;;;;;;;;14.69;67.46;99318.44;1746969;82;20604;-55
2022/06/23 04:08:39;;;;;;;;;;;;;;;14.65;67.44;99326.31;1746795;82;20190;-55
2022/06/23 04:12:13;;;;;;;;;;;;;;;14.69;67.50;99319.29;1747972;81;20332;-56
2022/06/23 04:15:21;;;;;;;;;;;;;;;14.75;67.49;99320.27;1703002;84;20205;-55
2022/06/23 04:18:30;;;;;;;;;;;;;;;14.80;67.48;99321.81;1747654;82;20186;-55
2022/06/23 04:21:35;;;;;;;;;;;;;;;14.85;67.62;99326.11;1747434;82;20221;-55
2022/06/23 04:24:39;;;;;;;;;;;;;;;14.87;67.63;99333.62;1747177;82;20197;-55
2022/06/23 04:27:50;;;;;;;;;;;;;;;14.84;67.57;99334.90;1747065;82;20189;-56
2022/06/23 04:30:57;;;;;;;;;;;;;;;14.85;67.67;99342.11;1747279;82;20216;-55
2022/06/23 04:34:03;;;;;;;;;;;;;;;14.93;67.88;99351.98;1747179;81;20182;-55
2022/06/23 04:37:08;;;;;;;;;;;;;;;15.00;67.93;99358.25;1747048;82;20565;-54
2022/06/23 04:40:35;;;;;;;;;;;;;;;15.05;67.93;99363.92;1703170;84;20222;-55
2022/06/23 04:43:43;;;;;;;;;;;;;;;15.05;67.92;99358.41;1747314;82;20197;-55
2022/06/23 04:46:54;;;;;;;;;;;;;;;15.05;67.90;99361.72;1747900;80;20241;-55
2022/06/23 04:50:02;;;;;;;;;;;;;;;15.03;67.92;99377.11;1698941;84;20201;-55
2022/06/23 04:53:08;;;;;;;;;;;;;;;14.97;67.97;99375.25;1701567;84;20244;-53
2022/06/23 04:56:25;;;;;;;;;;;;;;;14.97;68.09;99373.87;1701045;84;20588;-53
2022/06/23 04:59:48;;;;;;;;;;;;;;;14.97;68.11;99380.23;1730152;81;20234;-54
2022/06/23 05:03:05;;;;;;;;;;;;;;;15.01;68.16;99382.00;1729010;83;20255;-55
2022/06/23 05:06:29;;;;;;;;;;;;;;;15.06;68.19;99384.92;1729294;83;20211;-56
2022/06/23 05:09:47;;;;;;;;;;;;;;;15.17;68.28;99373.12;1734052;81;20564;-55
2022/06/23 05:12:54;;;;;;;;;;;;;;;15.31;68.25;99374.66;1697894;82;20612;-54
2022/06/23 05:16:20;;;;;;;;;;;;;;;15.45;68.24;99373.44;1697667;83;20217;-57
2022/06/23 05:19:32;;;;;;;;;;;;;;;15.57;68.24;99351.45;1697141;84;20205;-55
2022/06/23 05:22:42;;;;;;;;;;;;;;;15.74;68.29;99342.28;1697748;84;20208;-56
2022/06/23 05:25:50;;;;;;;;;;;;;;;15.94;68.31;99353.01;1703820;84;20597;-56
2022/06/23 05:28:57;;;;;;;;;;;;;;;16.11;68.25;99351.28;1687157;84;20265;-57
2022/06/23 05:32:04;;;;;;;;;;;;;;;16.30;68.15;99360.61;1697565;82;20241;-55
2022/06/23 05:35:22;;;;;;;;;;;;;;;16.50;68.08;99367.23;1736776;81;20213;-57
2022/06/23 05:38:36;;;;;;;;;;;;;;;16.65;67.75;99362.62;1754583;81;20208;-55
2022/06/23 05:42:00;;;;;;;;;;;;;;;16.85;67.72;99368.62;1711168;83;20587;-56
2022/06/23 05:45:34;;;;;;;;;;;;;;;17.06;67.70;99374.92;1702119;84;20267;-57
2022/06/23 05:48:42;;;;;;;;;;;;;;;17.23;67.60;99382.77;1741983;81;20221;-55
2022/06/23 05:51:52;;;;;;;;;;;;;;;17.29;67.38;99397.01;1740000;82;20210;-57
2022/06/23 05:55:09;;;;;;;;;;;;;;;17.26;67.27;99414.95;1772879;81;20314;-57
2022/06/23 05:58:46;;;;;;;;;;;;;;;17.19;67.28;99418.37;1739231;81;20256;-56
2022/06/23 06:01:55;;;;;;;;;;;;;;;17.12;67.40;99423.20;1760019;81;20296;-57
2022/06/23 06:05:05;;;;;;;;;;;;;;;17.11;67.52;99433.94;1774118;81;20227;-55
2022/06/23 06:08:20;;;;;;;;;;;;;;;17.03;67.53;99428.77;1757752;81;20578;-56
2022/06/23 06:11:26;;;;;;;;;;;;;;;16.99;67.65;99426.73;1772103;80;20297;-55
2022/06/23 06:14:33;;;;;;;;;;;;;;;16.95;67.76;99424.98;1753202;81;20226;-55
2022/06/23 06:17:40;;;;;;;;;;;;;;;16.98;67.85;99428.64;1723328;82;20244;-57
2022/06/23 06:20:45;;;;;;;;;;;;;;;17.05;67.92;99423.00;1720652;82;20397;-58
2022/06/23 06:24:01;;;;;;;;;;;;;;;17.19;68.01;99411.98;1741562;81;20209;-55
2022/06/23 06:27:06;;;;;;;;;;;;;;;17.34;68.01;99419.26;1741439;82;20222;-56
2022/06/23 06:30:15;;;;;;;;;;;;;;;17.50;68.00;99421.31;1733119;82;20251;-55
2022/06/23 06:33:28;;;;;;;;;;;;;;;17.71;68.04;99418.72;1742290;82;20226;-56
2022/06/23 06:36:40;;;;;;;;;;;;;;;18.01;68.10;99423.20;1741027;82;20836;-57
2022/06/23 06:39:53;;;;;;;;;;;;;;;18.20;67.90;99417.76;1709160;81;20209;-57
2022/06/23 06:43:01;;;;;;;;;;;;;;;18.32;67.71;99422.15;1715627;82;20502;-56
2022/06/23 06:46:06;;;;;;;;;;;;;;;18.33;67.40;99430.74;1713437;82;20261;-55
2022/06/23 06:49:11;;;;;;;;;;;;;;;18.39;67.48;99426.19;1701038;82;20220;-54
2022/06/23 06:52:17;;;;;;;;;;;;;;;18.54;67.66;99418.98;1685788;84;20194;-57
2022/06/23 06:55:25;;;;;;;;;;;;;;;18.88;67.83;99417.06;1679986;84;20574;-58
2022/06/23 06:58:33;;;;;;;;;;;;;;;19.09;67.67;99414.34;1693698;83;20627;-58
2022/06/23 07:01:39;;;;;;;;;;;;;;;19.35;67.60;99415.59;1663364;83;20224;-57
2022/06/23 07:04:49;;;;;;;;;;;;;;;19.53;67.36;99410.28;1745983;82;20542;-57
2022/06/23 07:07:59;;;;;;;;;;;;;;;19.65;67.22;99410.98;1740144;80;20558;-57
2022/06/23 07:11:30;;;;;;;;;;;;;;;19.71;67.01;99408.59;1744402;80;20244;-53
2022/06/23 07:14:46;;;;;;;;;;;;;;;19.64;66.83;99428.22;1740348;80;20214;-53
2022/06/23 07:18:02;;;;;;;;;;;;;;;19.63;66.72;99432.64;1735818;82;20613;-54
2022/06/23 07:21:22;;;;;;;;;;;;;;;19.79;66.97;99433.14;1743498;82;20498;-53
2022/06/23 07:24:33;;;;;;;;;;;;;;;20.01;66.96;99452.02;1735161;82;20237;-53
2022/06/23 07:27:41;;;;;;;;;;;;;;;20.31;67.07;99476.04;1742825;82;20213;-54
2022/06/23 07:30:49;;;;;;;;;;;;;;;20.41;66.72;99461.69;1737826;80;20235;-56
2022/06/23 07:34:00;;;;;;;;;;;;;;;20.51;66.65;99463.73;1724309;80;20210;-52
2022/06/23 07:37:05;;;;;;;;;;;;;;;20.62;66.52;99458.02;1766009;80;20226;-56
2022/06/23 07:40:13;;;;;;;;;;;;;;;20.78;66.43;99463.17;1716038;83;20580;-55
2022/06/23 07:43:25;;;;;;;;;;;;;;;20.95;66.50;99463.88;1742747;80;20579;-55
2022/06/23 07:46:28;;;;;;;;;;;;;;;21.10;66.31;99467.37;1739549;81;20225;-55
2022/06/23 07:49:35;;;;;;;;;;;;;;;20.94;65.83;99464.14;1733672;81;20217;-56
2022/06/23 07:52:40;;;;;;;;;;;;;;;20.76;65.67;99480.67;1716818;81;20545;-56
2022/06/23 07:55:47;;;;;;;;;;;;;;;20.61;65.66;99485.53;1738646;81;20690;-56
2022/06/23 07:58:55;;;;;;;;;;;;;;;20.57;65.84;99479.37;1740282;81;20190;-55
2022/06/23 08:02:08;;;;;;;;;;;;;;;20.65;65.93;99473.33;1758941;80;20204;-57
2022/06/23 08:05:28;;;;;;;;;;;;;;;20.76;66.06;99475.95;1774308;81;20200;-56
2022/06/23 08:08:34;;;;;;;;;;;;;;;20.88;66.09;99485.53;1766528;81;20210;-55
2022/06/23 08:18:45;;;;;;;;;;;;;;;20.96;65.83;99496.22;1716688;83;20576;-59
2022/06/23 08:22:00;;;;;;;;;;;;;;;20.91;65.81;99494.74;1702790;82;20606;-60
2022/06/23 08:25:08;;;;;;;;;;;;;;;20.86;65.79;99491.06;1722521;82;20200;-56
2022/06/23 08:28:15;;;;;;;;;;;;;;;20.84;65.91;99489.94;1714263;83;20212;-54
2022/06/23 08:31:22;;;;;;;;;;;;;;;20.97;66.15;99485.36;1715046;83;20247;-55
2022/06/23 08:34:29;;;;;;;;;;;;;;;21.12;66.16;99491.05;1678898;84;20243;-55
2022/06/23 08:37:39;;;;;;;;;;;;;;;21.11;66.04;99503.83;1706973;83;20268;-54
2022/06/23 08:41:03;;;;;;;;;;;;;;;21.05;65.94;99508.53;1686179;83;20888;-54
2022/06/23 08:44:12;;;;;;;;;;;;;;;21.00;65.98;99508.48;1695185;82;20213;-54
2022/06/23 08:47:25;;;;;;;;;;;;;;;20.97;65.96;99511.80;1737401;80;20231;-53
2022/06/23 08:50:48;;;;;;;;;;;;;;;21.16;66.23;99517.80;1740226;80;20265;-55
2022/06/23 08:54:03;;;;;;;;;;;;;;;21.41;66.25;99529.98;1740356;81;20242;-54
2022/06/23 08:57:14;;;;;;;;;;;;;;;21.62;66.07;99530.98;1710777;84;20271;-56
2022/06/23 09:00:44;;;;;;;;;;;;;;;21.63;65.76;99538.22;1718457;81;20208;-55
2022/06/23 09:03:55;;;;;;;;;;;;;;;21.74;65.87;99533.84;1715496;83;20220;-58
2022/06/23 09:07:05;;;;;;;;;;;;;;;21.88;65.89;99532.29;1757910;80;20491;-57
2022/06/23 09:10:22;;;;;;;;;;;;;;;22.18;65.89;99539.42;1770688;80;20243;-57
2022/06/23 09:13:53;;;;;;;;;;;;;;;22.25;65.50;99539.75;1773060;81;20196;-55
2022/06/23 09:17:05;;;;;;;;;;;;;;;22.17;65.25;99550.84;1723303;80;20208;-55
2022/06/23 09:20:39;;;;;;;;;;;;;;;22.02;65.18;99565.53;1713646;83;20200;-54
2022/06/23 09:24:13;;;;;;;;;;;;;;;21.94;65.21;99561.05;1671265;86;20617;-55
2022/06/23 09:27:39;;;;;;;;;;;;;;;21.93;65.20;99565.77;1742040;81;20209;-56
2022/06/23 09:30:54;;;;;;;;;;;;;;;21.89;65.24;99561.86;1742593;82;20652;-54
2022/06/23 09:34:19;;;;;;;;;;;;;;;22.02;65.42;99565.53;1744664;82;20202;-55
2022/06/23 09:37:45;;;;;;;;;;;;;;;22.27;65.43;99566.79;1744426;82;20249;-56
2022/06/23 09:41:10;;;;;;;;;;;;;;;22.37;65.15;99576.61;1745586;80;20617;-55
2022/06/23 09:44:34;;;;;;;;;;;;;;;22.44;65.08;99570.23;1745146;82;20206;-56
2022/06/23 09:48:02;;;;;;;;;;;;;;;22.53;65.04;99582.58;1728400;82;20205;-56
2022/06/23 09:51:17;;;;;;;;;;;;;;;22.53;64.86;99582.58;1744325;82;20624;-55
2022/06/23 09:54:34;;;;;;;;;;;;;;;22.45;64.64;99589.48;1762042;80;20582;-54
2022/06/23 09:58:01;;;;;;;;;;;;;;;22.41;64.72;99588.89;1754021;79;20208;-56
2022/06/23 10:01:12;;;;;;;;;;;;;;;22.46;64.64;99588.91;1756360;80;20224;-52
2022/06/23 10:04:22;;;;;;;;;;;;;;;22.50;64.49;99590.06;1761789;80;20196;-54
2022/06/23 10:07:38;;;;;;;;;;;;;;;22.60;64.41;99589.57;1766854;79;20213;-53
2022/06/23 10:11:01;;;;;;;;;;;;;;;22.68;64.41;99596.02;1773263;79;20465;-54
2022/06/23 10:14:24;;;;;;;;;;;;;;;22.88;64.59;99591.89;1744712;79;20245;-55
2022/06/23 10:17:50;;;;;;;;;;;;;;;23.24;64.61;99582.50;1748121;80;20252;-55
2022/06/23 10:20:59;;;;;;;;;;;;;;;23.47;64.35;99567.16;1705563;83;20544;-56
2022/06/23 10:24:34;;;;;;;;;;;;;;;23.69;64.15;99577.48;1695338;82;20209;-55
2022/06/23 10:28:06;;;;;;;;;;;;;;;23.59;63.77;99585.89;1707443;83;20253;-56
2022/06/23 10:31:29;;;;;;;;;;;;;;;23.47;63.80;99586.71;1672055;85;20563;-57
2022/06/23 10:35:11;;;;;;;;;;;;;;;23.55;63.86;99596.78;1670388;85;20223;-55
2022/06/23 10:38:29;;;;;;;;;;;;;;;23.69;63.88;99588.66;1703636;82;20211;-54
2022/06/23 10:41:55;;;;;;;;;;;;;;;24.07;63.97;99591.47;1742881;81;20207;-54
2022/06/23 10:45:26;;;;;;;;;;;;;;;24.06;63.47;99585.03;1748711;81;20319;-57
2022/06/23 10:48:42;;;;;;;;;;;;;;;24.07;63.45;99575.50;1726591;82;20285;-55
2022/06/23 10:52:08;;;;;;;;;;;;;;;24.15;63.14;99582.50;1726911;83;20286;-54
2022/06/23 10:55:22;;;;;;;;;;;;;;;24.09;62.85;99597.04;1699273;84;20186;-54
2022/06/23 10:59:02;;;;;;;;;;;;;;;23.75;62.50;99602.94;1701128;81;20288;-53
2022/06/23 11:02:25;;;;;;;;;;;;;;;23.37;62.46;99599.30;1711290;83;20237;-54
2022/06/23 11:05:37;;;;;;;;;;;;;;;23.01;62.48;99605.88;1728646;83;20609;-54
2022/06/23 11:08:52;;;;;;;;;;;;;;;22.77;62.57;99613.09;1723348;81;20219;-54
2022/06/23 11:12:19;;;;;;;;;;;;;;;22.66;62.77;99608.58;1726808;82;20226;-56
2022/06/23 11:15:33;;;;;;;;;;;;;;;22.70;63.00;99602.73;1727014;82;20206;-54
2022/06/23 11:19:04;;;;;;;;;;;;;;;22.89;63.21;99606.70;1728100;81;20566;-55
2022/06/23 11:22:34;;;;;;;;;;;;;;;23.15;63.21;99609.84;1718247;82;20215;-54
2022/06/23 11:25:54;;;;;;;;;;;;;;;23.43;63.05;99614.95;1712072;84;20211;-53
2022/06/23 11:29:08;;;;;;;;;;;;;;;23.44;62.66;99618.86;1721841;83;20218;-55
2022/06/23 11:32:24;;;;;;;;;;;;;;;23.33;62.34;99630.28;1727582;82;20210;-54
2022/06/23 11:35:44;;;;;;;;;;;;;;;23.19;62.31;99629.11;1729034;82;20206;-54
2022/06/23 11:39:01;;;;;;;;;;;;;;;23.08;62.16;99637.19;1727440;83;20262;-54
2022/06/23 11:42:28;;;;;;;;;;;;;;;22.93;62.19;99635.18;1736337;80;20204;-53
2022/06/23 11:45:47;;;;;;;;;;;;;;;23.04;62.46;99645.84;1711285;83;20254;-55
2022/06/23 11:48:58;;;;;;;;;;;;;;;23.17;62.48;99641.95;1726259;82;20348;-54
2022/06/23 11:52:06;;;;;;;;;;;;;;;23.43;62.57;99642.88;1753778;79;20252;-55
2022/06/23 11:55:38;;;;;;;;;;;;;;;23.72;62.41;99643.19;1734868;81;20213;-54
2022/06/23 11:58:58;;;;;;;;;;;;;;;23.76;61.92;99642.89;1734830;80;20585;-55
2022/06/23 12:02:03;;;;;;;;;;;;;;;23.77;61.74;99646.80;1729216;80;20215;-55
2022/06/23 12:05:26;;;;;;;;;;;;;;;23.73;61.42;99655.48;1730387;80;20214;-54
2022/06/23 12:08:41;;;;;;;;;;;;;;;23.63;61.22;99653.25;1724492;81;20219;-54
2022/06/23 12:11:47;;;;;;;;;;;;;;;23.51;61.04;99659.95;1712306;83;20205;-55
2022/06/23 12:14:54;;;;;;;;;;;;;;;23.42;61.02;99660.77;1721234;83;20293;-55
2022/06/23 12:18:02;;;;;;;;;;;;;;;23.42;61.01;99653.79;1745584;80;20222;-55
2022/06/23 12:21:11;;;;;;;;;;;;;;;23.57;61.09;99648.20;1716977;82;20214;-55
2022/06/23 12:24:42;;;;;;;;;;;;;;;23.73;61.08;99647.09;1729017;83;20278;-54
2022/06/23 12:28:06;;;;;;;;;;;;;;;23.91;60.92;99645.16;1725859;80;20214;-54
2022/06/23 12:31:26;;;;;;;;;;;;;;;24.01;60.72;99641.51;1751905;81;20212;-56
2022/06/23 12:34:39;;;;;;;;;;;;;;;24.01;60.61;99645.70;1758100;81;20227;-56
2022/06/23 12:38:11;;;;;;;;;;;;;;;24.05;60.48;99652.43;1757991;81;20204;-55
2022/06/23 12:41:21;;;;;;;;;;;;;;;24.06;60.45;99645.70;1758756;81;20519;-56
2022/06/23 12:44:48;;;;;;;;;;;;;;;24.07;60.35;99652.41;1752768;81;20246;-57
2022/06/23 12:48:07;;;;;;;;;;;;;;;24.12;60.25;99641.23;1723613;80;20631;-55
2022/06/23 12:51:33;;;;;;;;;;;;;;;24.06;60.08;99649.34;1701362;83;20205;-55
2022/06/23 12:55:02;;;;;;;;;;;;;;;24.07;60.01;99651.02;1710233;81;20539;-56
2022/06/23 12:58:28;;;;;;;;;;;;;;;24.10;59.89;99644.86;1718210;83;20220;-55
2022/06/23 13:01:47;;;;;;;;;;;;;;;24.18;59.92;99639.27;1718417;83;20192;-55
2022/06/23 13:04:59;;;;;;;;;;;;;;;24.32;59.94;99644.01;1699013;84;20256;-55
2022/06/23 13:08:17;;;;;;;;;;;;;;;24.48;59.80;99644.22;1684428;85;20582;-55
2022/06/23 13:11:29;;;;;;;;;;;;;;;24.46;59.41;99631.09;1683819;85;20600;-54
2022/06/23 13:14:55;;;;;;;;;;;;;;;24.42;59.12;99645.36;1701817;84;20521;-56
2022/06/23 13:18:09;;;;;;;;;;;;;;;24.44;59.22;99638.92;1696167;84;20647;-56
2022/06/23 13:21:26;;;;;;;;;;;;;;;24.56;59.15;99637.22;1713070;83;20557;-55
2022/06/23 13:24:31;;;;;;;;;;;;;;;24.54;58.86;99652.91;1713826;82;20786;-55
2022/06/23 13:27:37;;;;;;;;;;;;;;;24.45;58.69;99639.77;1687872;83;20232;-54
2022/06/23 13:30:53;;;;;;;;;;;;;;;24.41;58.69;99645.64;1719354;82;20239;-55
2022/06/23 13:34:06;;;;;;;;;;;;;;;24.49;58.77;99654.31;1703853;84;20220;-54
2022/06/23 13:37:18;;;;;;;;;;;;;;;24.51;58.57;99653.47;1739257;81;20846;-55
2022/06/23 13:40:49;;;;;;;;;;;;;;;24.57;58.42;99653.73;1736852;82;20561;-56
2022/06/23 13:44:16;;;;;;;;;;;;;;;24.33;58.01;99656.86;1717072;81;20221;-55
2022/06/23 13:47:27;;;;;;;;;;;;;;;24.20;58.00;99647.65;1758770;79;20607;-54
2022/06/23 13:50:36;;;;;;;;;;;;;;;24.25;58.14;99644.00;1749433;79;20191;-54
2022/06/23 13:54:08;;;;;;;;;;;;;;;24.35;58.04;99658.83;1708250;83;20615;-53
2022/06/23 13:57:27;;;;;;;;;;;;;;;24.38;57.93;99644.81;1705322;82;20217;-53
2022/06/23 14:00:45;;;;;;;;;;;;;;;24.45;57.80;99645.38;1757335;80;20627;-54
2022/06/23 14:04:00;;;;;;;;;;;;;;;24.50;57.61;99649.53;1748683;80;20305;-57
2022/06/23 14:07:31;;;;;;;;;;;;;;;24.49;57.51;99643.11;1748658;80;20207;-52
2022/06/23 14:10:52;;;;;;;;;;;;;;;24.53;57.42;99648.41;1741929;80;20253;-54
2022/06/23 14:14:02;;;;;;;;;;;;;;;24.59;57.25;99644.45;1717886;82;20657;-54
2022/06/23 14:17:25;;;;;;;;;;;;;;;24.73;57.16;99637.19;1719460;82;20610;-54
2022/06/23 14:20:40;;;;;;;;;;;;;;;24.80;56.97;99643.30;1690320;83;20244;-54
2022/06/23 14:24:06;;;;;;;;;;;;;;;24.90;56.88;99632.62;1684087;85;20259;-54
2022/06/23 14:27:24;;;;;;;;;;;;;;;25.04;56.71;99630.86;1684705;84;20222;-54
2022/06/23 14:30:40;;;;;;;;;;;;;;;25.09;56.40;99636.45;1741910;82;20652;-55
2022/06/23 14:33:52;;;;;;;;;;;;;;;24.97;56.15;99632.58;1742409;82;20608;-54
2022/06/23 14:37:15;;;;;;;;;;;;;;;24.85;56.00;99635.44;1741956;82;20851;-54
2022/06/23 14:40:44;;;;;;;;;;;;;;;24.74;55.93;99643.05;1740551;82;20217;-54
2022/06/23 14:44:05;;;;;;;;;;;;;;;24.64;55.85;99645.85;1738874;82;20214;-54
2022/06/23 14:47:21;;;;;;;;;;;;;;;24.54;55.87;99646.45;1747296;82;20559;-54
2022/06/23 14:50:34;;;;;;;;;;;;;;;24.50;55.93;99648.98;1744604;82;20653;-55
2022/06/23 14:54:00;;;;;;;;;;;;;;;24.33;55.93;99661.06;1738535;81;20214;-55
2022/06/23 14:57:11;;;;;;;;;;;;;;;24.00;55.90;99675.64;1747767;79;20565;-55
2022/06/23 15:00:25;;;;;;;;;;;;;;;23.70;56.08;99672.81;1751901;80;20519;-54
2022/06/23 15:03:50;;;;;;;;;;;;;;;23.58;56.25;99686.20;1754819;81;20216;-54
2022/06/23 15:07:18;;;;;;;;;;;;;;;23.56;56.36;99685.66;1736133;80;20320;-56
2022/06/23 15:10:38;;;;;;;;;;;;;;;23.57;56.46;99693.77;1726503;82;20183;-53
2022/06/23 15:14:08;;;;;;;;;;;;;;;23.50;56.50;99698.77;1725624;83;20195;-55
2022/06/23 15:17:24;;;;;;;;;;;;;;;23.36;56.54;99709.34;1673683;82;20209;-55
2022/06/23 15:20:36;;;;;;;;;;;;;;;23.21;56.72;99723.25;1775867;79;20218;-54
2022/06/23 15:23:49;;;;;;;;;;;;;;;23.14;56.87;99731.03;1763824;81;20216;-54
2022/06/23 15:27:00;;;;;;;;;;;;;;;22.98;56.87;99732.06;1730816;81;20243;-54
2022/06/23 15:30:11;;;;;;;;;;;;;;;22.84;56.87;99745.69;1762511;80;20492;-55
2022/06/23 15:33:19;;;;;;;;;;;;;;;22.71;57.00;99751.75;1725663;83;20219;-55
2022/06/23 15:36:45;;;;;;;;;;;;;;;22.59;57.14;99773.99;1726473;82;20238;-55
2022/06/23 15:39:58;;;;;;;;;;;;;;;22.53;57.24;99772.28;1673639;86;20207;-55
2022/06/23 15:43:16;;;;;;;;;;;;;;;22.33;57.24;99777.66;1727842;81;20523;-54
2022/06/23 15:46:23;;;;;;;;;;;;;;;22.17;57.53;99788.70;1726292;82;20239;-55
2022/06/23 15:49:38;;;;;;;;;;;;;;;22.09;57.68;99799.48;1726930;82;20250;-54
2022/06/23 15:52:50;;;;;;;;;;;;;;;21.93;57.68;99804.63;1726042;82;20199;-56
2022/06/23 15:55:58;;;;;;;;;;;;;;;21.77;57.84;99790.27;1743366;82;20188;-55
2022/06/23 15:59:09;;;;;;;;;;;;;;;21.65;58.04;99793.70;1753642;81;20177;-54
2022/06/23 16:02:23;;;;;;;;;;;;;;;21.64;58.26;99791.50;1743361;81;20192;-54
2022/06/23 16:05:33;;;;;;;;;;;;;;;21.62;58.39;99786.73;1726907;82;20281;-55
2022/06/23 16:08:40;;;;;;;;;;;;;;;21.63;58.48;99797.30;1727950;82;20230;-55
2022/06/23 16:11:53;;;;;;;;;;;;;;;21.63;58.60;99800.09;1727319;82;20286;-55
2022/06/23 16:15:04;;;;;;;;;;;;;;;21.61;58.63;99797.56;1727121;82;20278;-55
2022/06/23 16:18:12;;;;;;;;;;;;;;;21.58;58.71;99803.66;1746689;79;20232;-54
2022/06/23 16:21:22;;;;;;;;;;;;;;;21.57;58.83;99814.52;1724833;82;20249;-54
2022/06/23 16:24:41;;;;;;;;;;;;;;;21.56;58.89;99811.45;1751176;80;20618;-54
2022/06/23 16:27:53;;;;;;;;;;;;;;;21.48;58.88;99806.35;1744078;81;20207;-55
2022/06/23 16:30:59;;;;;;;;;;;;;;;21.43;59.06;99806.28;1750396;81;20259;-55
2022/06/23 16:34:14;;;;;;;;;;;;;;;21.42;59.20;99815.72;1743051;81;20184;-55
2022/06/23 16:37:42;;;;;;;;;;;;;;;21.36;59.18;99807.02;1736060;81;20566;-54
2022/06/23 16:40:52;;;;;;;;;;;;;;;21.42;59.31;99799.58;1726210;82;20202;-54
2022/06/23 16:44:01;;;;;;;;;;;;;;;21.55;59.35;99800.58;1720067;83;20202;-55
2022/06/23 16:47:09;;;;;;;;;;;;;;;21.64;59.33;99798.46;1726574;83;20278;-54
2022/06/23 16:50:27;;;;;;;;;;;;;;;21.62;59.24;99802.59;1726107;83;20482;-55
2022/06/23 16:53:50;;;;;;;;;;;;;;;21.56;59.24;99791.96;1727430;83;20191;-53
2022/06/23 16:57:01;;;;;;;;;;;;;;;21.50;59.32;99797.73;1727651;83;20179;-55
2022/06/23 17:00:17;;;;;;;;;;;;;;;21.45;59.42;99794.34;1687158;82;20202;-54
2022/06/23 17:03:32;;;;;;;;;;;;;;;21.39;59.49;99802.89;1766923;80;20586;-54
2022/06/23 17:06:49;;;;;;;;;;;;;;;21.31;59.49;99805.55;1795362;79;20458;-54